TimeAKDT,TemperatureF,Dew PointF,Humidity,Sea Level PressureIn,VisibilityMPH,Wind Direction,Wind SpeedMPH,Gust SpeedMPH,PrecipitationIn,Events,Conditions,WindDirDegrees,DateUTC
12:16 AM,32.0,30.2,93,30.21,10.0,Calm,Calm,-,N/A,,Overcast,0,2013-03-31 08:16:00
12:36 AM,30.2,30.2,100,30.21,10.0,Calm,Calm,-,N/A,,Overcast,0,2013-03-31 08:36:00
12:56 AM,32.0,30.2,93,30.21,10.0,Calm,Calm,-,N/A,,Partly Cloudy,0,2013-03-31 08:56:00
1:16 AM,30.2,28.4,93,30.21,10.0,Calm,Calm,-,N/A,,Clear,0,2013-03-31 09:16:00
1:36 AM,30.2,28.4,93,30.21,10.0,Calm,Calm,-,N/A,,Clear,0,2013-03-31 09:36:00
1:56 AM,28.4,26.6,93,30.22,10.0,Calm,Calm,-,N/A,,Scattered Clouds,0,2013-03-31 09:56:00
2:16 AM,28.4,26.6,93,30.22,10.0,Calm,Calm,-,N/A,,Mostly Cloudy,0,2013-03-31 10:16:00
2:36 AM,26.6,24.8,93,30.22,10.0,Calm,Calm,-,N/A,,Scattered Clouds,0,2013-03-31 10:36:00
2:56 AM,26.6,24.8,93,30.22,10.0,Calm,Calm,-,N/A,,Scattered Clouds,0,2013-03-31 10:56:00
3:16 AM,26.6,23.0,86,30.22,10.0,Calm,Calm,-,N/A,,Mostly Cloudy,0,2013-03-31 11:16:00
3:36 AM,24.8,23.0,93,30.22,3.0,Calm,Calm,-,N/A,,Overcast,0,2013-03-31 11:36:00
3:56 AM,24.8,23.0,93,30.23,2.0,Calm,Calm,-,N/A,,Overcast,0,2013-03-31 11:56:00
4:16 AM,24.8,23.0,93,30.23,0.2,Calm,Calm,-,N/A,,Overcast,0,2013-03-31 12:16:00
4:36 AM,24.8,21.2,86,30.22,0.2,Calm,Calm,-,N/A,,Overcast,0,2013-03-31 12:36:00
4:56 AM,24.8,21.2,86,30.22,0.5,Calm,Calm,-,N/A,,Overcast,0,2013-03-31 12:56:00
5:16 AM,24.8,21.2,86,30.22,0.5,Calm,Calm,-,N/A,,Overcast,0,2013-03-31 13:16:00
5:36 AM,23.0,21.2,93,30.22,0.8,Calm,Calm,-,N/A,,Overcast,0,2013-03-31 13:36:00
5:56 AM,24.8,21.2,86,30.23,0.5,Calm,Calm,-,N/A,,Overcast,0,2013-03-31 13:56:00
6:16 AM,24.8,21.2,86,30.23,0.2,Calm,Calm,-,N/A,,Overcast,0,2013-03-31 14:16:00
6:36 AM,23.0,21.2,93,30.23,0.2,Calm,Calm,-,N/A,,Overcast,0,2013-03-31 14:36:00
6:56 AM,24.8,21.2,86,30.23,0.2,Calm,Calm,-,N/A,,Overcast,0,2013-03-31 14:56:00
7:16 AM,24.8,21.2,86,30.23,0.2,Calm,Calm,-,N/A,,Overcast,0,2013-03-31 15:16:00
7:36 AM,24.8,21.2,86,30.23,0.2,Calm,Calm,-,N/A,,Overcast,0,2013-03-31 15:36:00
7:56 AM,24.8,21.2,86,30.23,0.2,Calm,Calm,-,N/A,,Overcast,0,2013-03-31 15:56:00
8:16 AM,24.8,21.2,86,30.23,0.2,Calm,Calm,-,N/A,,Overcast,0,2013-03-31 16:16:00
8:36 AM,24.8,21.2,86,30.23,0.2,Calm,Calm,-,N/A,,Overcast,0,2013-03-31 16:36:00
8:56 AM,24.8,21.2,86,30.23,0.2,Calm,Calm,-,N/A,,Overcast,0,2013-03-31 16:56:00
9:16 AM,24.8,21.2,86,30.23,0.2,Calm,Calm,-,N/A,,Overcast,0,2013-03-31 17:16:00
9:36 AM,24.8,23.0,93,30.24,0.2,Calm,Calm,-,N/A,,Overcast,0,2013-03-31 17:36:00
9:56 AM,24.8,24.8,100,30.23,0.5,Calm,Calm,-,N/A,,Overcast,0,2013-03-31 17:56:00
10:16 AM,26.6,24.8,93,30.24,0.2,Calm,Calm,-,N/A,,Overcast,0,2013-03-31 18:16:00
10:36 AM,26.6,24.8,93,30.24,0.2,ENE,3.5,-,N/A,,Overcast,60,2013-03-31 18:36:00
10:56 AM,26.6,26.6,100,30.24,1.2,Calm,Calm,-,N/A,,Overcast,0,2013-03-31 18:56:00
11:16 AM,28.4,26.6,93,30.24,0.8,Calm,Calm,-,N/A,,Overcast,0,2013-03-31 19:16:00
11:36 AM,30.2,28.4,93,30.24,9.0,ENE,4.6,-,N/A,,Overcast,60,2013-03-31 19:36:00
11:56 AM,30.2,28.4,93,30.24,9.0,NE,4.6,-,N/A,,Overcast,50,2013-03-31 19:56:00
12:16 PM,30.2,30.2,100,30.23,10.0,Calm,Calm,-,N/A,,Overcast,0,2013-03-31 20:16:00
12:36 PM,30.2,28.4,93,30.23,10.0,NE,4.6,-,N/A,,Overcast,40,2013-03-31 20:36:00
12:56 PM,32.0,30.2,93,30.23,10.0,North,4.6,-,N/A,,Overcast,350,2013-03-31 20:56:00
1:16 PM,33.8,32.0,93,30.23,10.0,NNW,6.9,-,N/A,,Overcast,330,2013-03-31 21:16:00
1:36 PM,33.8,33.8,100,30.22,10.0,NNE,4.6,-,N/A,,Overcast,20,2013-03-31 21:36:00
1:56 PM,35.6,32.0,87,30.22,10.0,Calm,Calm,-,N/A,,Overcast,0,2013-03-31 21:56:00
2:16 PM,37.4,32.0,81,30.21,10.0,NNE,3.5,-,N/A,,Mostly Cloudy,20,2013-03-31 22:16:00
2:36 PM,37.4,32.0,81,30.20,10.0,North,6.9,-,N/A,,Mostly Cloudy,10,2013-03-31 22:36:00
2:56 PM,39.2,30.2,70,30.19,10.0,NNW,5.8,-,N/A,,Mostly Cloudy,340,2013-03-31 22:56:00
3:16 PM,39.2,30.2,70,30.18,10.0,NNW,4.6,-,N/A,,Scattered Clouds,340,2013-03-31 23:16:00
3:36 PM,41.0,30.2,65,30.18,10.0,NW,6.9,-,N/A,,Mostly Cloudy,320,2013-03-31 23:36:00
3:56 PM,39.2,30.2,70,30.17,10.0,NNE,5.8,-,N/A,,Overcast,20,2013-03-31 23:56:00
4:16 PM,41.0,30.2,65,30.17,10.0,North,6.9,-,N/A,,Mostly Cloudy,360,2013-04-01 00:16:00
4:36 PM,41.0,30.2,65,30.16,10.0,NNW,6.9,-,N/A,,Overcast,340,2013-04-01 00:36:00
4:56 PM,41.0,30.2,65,30.15,10.0,NNW,5.8,-,N/A,,Mostly Cloudy,340,2013-04-01 00:56:00
5:16 PM,41.0,28.4,61,30.15,10.0,NNW,6.9,-,N/A,,Mostly Cloudy,330,2013-04-01 01:16:00
5:36 PM,41.0,28.4,61,30.14,10.0,North,5.8,-,N/A,,Mostly Cloudy,350,2013-04-01 01:36:00
5:56 PM,41.0,28.4,61,30.14,10.0,North,6.9,-,N/A,,Partly Cloudy,360,2013-04-01 01:56:00
6:16 PM,41.0,28.4,61,30.14,10.0,NNW,8.1,-,N/A,,Partly Cloudy,340,2013-04-01 02:16:00
6:36 PM,41.0,28.4,61,30.14,10.0,North,6.9,-,N/A,,Clear,350,2013-04-01 02:36:00
6:56 PM,41.0,28.4,61,30.13,10.0,North,6.9,-,N/A,,Clear,10,2013-04-01 02:56:00
7:16 PM,41.0,28.4,61,30.13,10.0,North,3.5,-,N/A,,Clear,10,2013-04-01 03:16:00
7:36 PM,39.2,30.2,70,30.13,10.0,NW,6.9,-,N/A,,Clear,320,2013-04-01 03:36:00
7:56 PM,39.2,30.2,70,30.12,10.0,NNW,5.8,-,N/A,,Clear,340,2013-04-01 03:56:00
8:16 PM,39.2,28.4,65,30.12,10.0,NW,4.6,-,N/A,,Clear,320,2013-04-01 04:16:00
8:36 PM,37.4,28.4,70,30.13,10.0,NW,4.6,-,N/A,,Clear,310,2013-04-01 04:36:00
8:56 PM,35.6,28.4,75,30.12,10.0,West,3.5,-,N/A,,Clear,280,2013-04-01 04:56:00
9:16 PM,35.6,28.4,75,30.12,10.0,NW,3.5,-,N/A,,Clear,310,2013-04-01 05:16:00
9:36 PM,35.6,28.4,75,30.12,10.0,Calm,Calm,-,N/A,,Clear,0,2013-04-01 05:36:00
9:56 PM,32.0,26.6,80,30.12,10.0,Calm,Calm,-,N/A,,Clear,0,2013-04-01 05:56:00
10:16 PM,30.2,24.8,80,30.12,10.0,Calm,Calm,-,N/A,,Clear,0,2013-04-01 06:16:00
10:36 PM,28.4,24.8,86,30.12,10.0,Calm,Calm,-,N/A,,Clear,0,2013-04-01 06:36:00
10:56 PM,28.4,24.8,86,30.11,10.0,Calm,Calm,-,N/A,,Clear,0,2013-04-01 06:56:00
11:16 PM,26.6,23.0,86,30.11,10.0,Calm,Calm,-,N/A,,Scattered Clouds,0,2013-04-01 07:16:00
11:36 PM,26.6,23.0,86,30.11,10.0,Calm,Calm,-,N/A,,Mostly Cloudy,0,2013-04-01 07:36:00